Terminal Aerodrome Forecast
Issued by NWS Wilmington, NC

Home | Current Version | Previous Version | Text Only | Print | Product List | Glossary On
Versions: 1 2 3 4 5 6 7 8 9 10 11 12 13
000
FTUS42 KILM 300800 AAA
TAFILM
TAF AMD
KILM 300816Z 3008/3106 02005KT P6SM FEW012 SCT020
      TEMPO 3009/3013 BKN020
     FM301300 07005KT P6SM SCT020
     FM301800 15008KT P6SM SCT040=

USA.gov is the U.S. government's official web portal to all federal, state and local government web resources and services.